createdAt,value
2022-09-30T00:00:53.795Z,14
2022-09-30T00:04:03.524Z,13.4
2022-09-30T00:06:55.291Z,15.3
2022-09-30T00:09:43.010Z,15.1
2022-09-30T00:12:32.735Z,14.1
2022-09-30T00:15:20.385Z,13.3
2022-09-30T00:18:08.101Z,14.6
2022-09-30T00:20:55.688Z,15.5
2022-09-30T00:23:44.261Z,14.5
2022-09-30T00:26:32.928Z,13.5
2022-09-30T00:29:21.277Z,14.5
2022-09-30T00:32:08.905Z,15.6
2022-09-30T00:34:56.468Z,14.6
2022-09-30T00:37:44.100Z,13.7
2022-09-30T00:40:32.291Z,14.4
2022-09-30T00:43:22.659Z,15.5
2022-09-30T00:46:27.019Z,14.6
2022-09-30T00:49:20.609Z,13.5
2022-09-30T00:52:10.967Z,14.3
2022-09-30T00:54:58.635Z,15.5
2022-09-30T00:57:49.585Z,14.7
2022-09-30T01:00:37.575Z,13.7
2022-09-30T01:03:26.212Z,14.2
2022-09-30T01:06:16.359Z,15.6
2022-09-30T01:09:06.876Z,14.9
2022-09-30T01:11:55.706Z,13.8
2022-09-30T01:14:43.385Z,13.3
2022-09-30T01:17:35.835Z,15
2022-09-30T01:20:37.361Z,15
2022-09-30T01:23:45.548Z,13.9
2022-09-30T01:26:49.392Z,13.8
2022-09-30T01:29:49.759Z,15.8
2022-09-30T01:32:52.205Z,15.5
2022-09-30T01:35:59.452Z,14.3
2022-09-30T01:38:59.756Z,14
2022-09-30T01:42:02.368Z,15.8
2022-09-30T01:44:58.889Z,15.6
2022-09-30T01:47:54.450Z,14.4
2022-09-30T01:50:47.242Z,13.5
2022-09-30T01:53:41.775Z,14.1
2022-09-30T01:56:36.659Z,16
2022-09-30T01:59:28.659Z,15.4
2022-09-30T02:02:21.530Z,14.3
2022-09-30T02:05:12.483Z,14.2
2022-09-30T02:08:05.739Z,16.2
2022-09-30T02:11:01.461Z,15.6
2022-09-30T02:13:56.823Z,14.5
2022-09-30T02:16:51.431Z,13.5
2022-09-30T02:19:46.923Z,14.6
2022-09-30T02:22:40.147Z,16.1
2022-09-30T02:25:31.623Z,15.2
2022-09-30T02:28:22.978Z,14
2022-09-30T02:31:15.317Z,13.5
2022-09-30T02:34:05.674Z,15.5
2022-09-30T02:36:58.479Z,15.6
2022-09-30T02:39:52.911Z,14.5
2022-09-30T02:42:49.278Z,13.5
2022-09-30T02:45:36.991Z,14.7
2022-09-30T02:48:32.174Z,15.8
2022-09-30T02:51:29.096Z,14.9
2022-09-30T02:54:26.252Z,13.8
2022-09-30T02:57:19.639Z,13.6
2022-09-30T03:00:15.605Z,15.7
2022-09-30T03:03:03.878Z,15.5
2022-09-30T03:05:57.609Z,14.4
2022-09-30T03:08:45.168Z,13.5
2022-09-30T03:11:33.223Z,15.1
2022-09-30T03:14:22.061Z,15.3
2022-09-30T03:17:25.624Z,14.2
2022-09-30T03:20:33.423Z,13.5
2022-09-30T03:23:30.577Z,15.6
2022-09-30T03:26:35.970Z,15.6
2022-09-30T03:29:33.212Z,14.4
2022-09-30T03:32:30.268Z,13.6
2022-09-30T03:35:34.646Z,15.6
2022-09-30T03:38:32.111Z,15.7
2022-09-30T03:41:28.971Z,14.6
2022-09-30T03:44:23.424Z,13.6
2022-09-30T03:47:16.346Z,14.9
2022-09-30T03:50:07.042Z,16.3
2022-09-30T03:52:58.149Z,15.3
2022-09-30T03:55:46.040Z,14.2
2022-09-30T03:58:37.484Z,14.3
2022-09-30T04:01:28.679Z,16.2
2022-09-30T04:04:16.424Z,15.6
2022-09-30T04:07:04.563Z,14.6
2022-09-30T04:09:52.754Z,15.2
2022-09-30T04:12:40.933Z,16.3
2022-09-30T04:15:28.736Z,15.3
2022-09-30T04:18:16.533Z,14.3
2022-09-30T04:21:04.083Z,15.4
2022-09-30T04:23:53.447Z,15.9
2022-09-30T04:26:41.498Z,14.9
2022-09-30T04:29:29.189Z,13.9
2022-09-30T04:32:16.832Z,13.7
2022-09-30T04:35:06.595Z,15.9
2022-09-30T04:37:54.421Z,15.8
2022-09-30T04:40:42.188Z,14.7
2022-09-30T04:43:29.776Z,13.8
2022-09-30T04:46:19.100Z,14.6
2022-09-30T04:49:09.309Z,16.2
2022-09-30T04:51:57.285Z,15.3
2022-09-30T04:54:45.083Z,14.2
2022-09-30T04:57:32.617Z,13.3
2022-09-30T05:00:20.140Z,14.2
2022-09-30T05:03:09.729Z,15.6
2022-09-30T05:05:57.260Z,14.7
2022-09-30T05:08:46.339Z,13.7
2022-09-30T05:11:35.352Z,13.2
2022-09-30T05:14:26.951Z,15.3
2022-09-30T05:17:15.041Z,15.1
2022-09-30T05:20:03.687Z,14.1
2022-09-30T05:22:55.422Z,13.2
2022-09-30T05:25:43.146Z,14.4
2022-09-30T05:28:31.279Z,15.8
2022-09-30T05:31:18.977Z,14.9
2022-09-30T05:34:06.610Z,13.8
2022-09-30T05:36:54.379Z,13.4
2022-09-30T05:39:41.871Z,15.4
2022-09-30T05:42:29.360Z,15
2022-09-30T05:45:17.442Z,14
2022-09-30T05:48:05.226Z,13
2022-09-30T05:50:52.929Z,14
2022-09-30T05:53:42.205Z,15.8
2022-09-30T05:56:30.183Z,15.1
2022-09-30T05:59:19.204Z,14
2022-09-30T06:02:06.856Z,13.1
2022-09-30T06:04:55.324Z,13.9
2022-09-30T06:07:42.944Z,15.7
2022-09-30T06:10:30.532Z,15.1
2022-09-30T06:13:19.172Z,14
2022-09-30T06:16:06.905Z,13.6
2022-09-30T06:18:55.857Z,15.7
2022-09-30T06:21:43.966Z,16
2022-09-30T06:24:31.746Z,14.9
2022-09-30T06:27:19.412Z,13.9
2022-09-30T06:30:07.174Z,14.9
2022-09-30T06:32:56.683Z,16.3
2022-09-30T06:35:45.991Z,15.5
2022-09-30T06:38:33.620Z,14.5
2022-09-30T06:41:21.811Z,13.6
2022-09-30T06:44:10.870Z,14.5
2022-09-30T06:46:58.546Z,16.1
2022-09-30T06:49:49.531Z,15.3
2022-09-30T06:52:39.184Z,14.4
2022-09-30T06:55:26.790Z,13.5
2022-09-30T06:58:17.315Z,14.7
2022-09-30T07:01:05.947Z,16.1
2022-09-30T07:03:54.761Z,15.4
2022-09-30T07:06:43.116Z,14.6
2022-09-30T07:09:30.812Z,13.9
2022-09-30T07:12:18.419Z,13.4
2022-09-30T07:15:10.228Z,14.8
2022-09-30T07:18:00.572Z,16.6
2022-09-30T07:20:48.227Z,15.9
2022-09-30T07:23:37.571Z,15
2022-09-30T07:26:30.321Z,14.3
2022-09-30T07:29:18.136Z,13.8
2022-09-30T07:32:05.823Z,15
2022-09-30T07:34:54.151Z,16.9
2022-09-30T07:37:41.899Z,16.3
2022-09-30T07:40:30.875Z,15.3
2022-09-30T07:43:18.524Z,14.6
2022-09-30T07:46:06.586Z,14
2022-09-30T07:48:57.952Z,15.2
2022-09-30T07:51:48.659Z,16.9
2022-09-30T07:54:41.372Z,16.1
2022-09-30T07:57:30.959Z,15.1
2022-09-30T08:00:41.021Z,14.5
2022-09-30T08:03:33.852Z,14.7
2022-09-30T08:06:24.232Z,16.9
2022-09-30T08:09:13.407Z,16.7
2022-09-30T08:12:03.963Z,15.8
2022-09-30T08:14:51.703Z,15
2022-09-30T08:17:39.424Z,14.4
2022-09-30T08:20:27.108Z,15.5
2022-09-30T08:23:14.721Z,16.8
2022-09-30T08:26:03.464Z,16.2
2022-09-30T08:28:53.906Z,15.4
2022-09-30T08:31:41.483Z,15
2022-09-30T08:34:29.540Z,14.6
2022-09-30T08:37:19.965Z,14.7
2022-09-30T08:40:08.506Z,17.1
2022-09-30T08:43:06.379Z,17.7
2022-09-30T08:46:09.546Z,17.1
2022-09-30T08:49:07.551Z,16.4
2022-09-30T08:52:16.013Z,16
2022-09-30T08:55:16.879Z,15.7
2022-09-30T08:58:09.224Z,15.6
2022-09-30T09:01:07.172Z,16.2
2022-09-30T09:04:05.792Z,17.8
2022-09-30T09:06:54.786Z,17.7
2022-09-30T09:09:51.393Z,17.3
2022-09-30T09:12:53.112Z,16.9
2022-09-30T09:15:48.993Z,16.7
2022-09-30T09:18:49.280Z,16.6
2022-09-30T09:21:44.484Z,16.5
2022-09-30T09:24:38.401Z,16.5
2022-09-30T09:30:31.924Z,16.4
2022-09-30T09:33:28.230Z,16.4
2022-09-30T09:36:17.795Z,16.5
2022-09-30T09:39:18.923Z,16.5
2022-09-30T09:42:25.124Z,16.4
2022-09-30T09:45:23.920Z,16.4
2022-09-30T09:48:19.456Z,16.4
2022-09-30T09:51:07.127Z,16.4
2022-09-30T09:54:03.087Z,16.3
2022-09-30T09:56:54.697Z,16.3
2022-09-30T09:59:53.867Z,16.3
2022-09-30T10:02:43.200Z,16.3
2022-09-30T10:05:30.861Z,16.3
2022-09-30T10:08:24.128Z,16.3
2022-09-30T10:11:11.860Z,16.3
2022-09-30T10:14:06.987Z,16.2
2022-09-30T10:17:03.908Z,16.4
2022-09-30T10:20:03.844Z,16.5
2022-09-30T10:23:03.977Z,16.7
2022-09-30T10:26:02.790Z,16.8
2022-09-30T10:29:03.793Z,16.9
2022-09-30T10:32:11.260Z,17
2022-09-30T10:34:59.140Z,17.3
2022-09-30T10:37:51.632Z,17.5
2022-09-30T10:40:43.278Z,17.6
2022-09-30T10:43:35.040Z,17.5
2022-09-30T10:46:28.167Z,17.3
2022-09-30T10:49:20.031Z,17.3
2022-09-30T10:52:13.238Z,17.4
2022-09-30T10:55:09.098Z,17.6
2022-09-30T10:58:16.619Z,18.1
2022-09-30T11:01:14.530Z,18.5
2022-09-30T11:04:12.923Z,18.8
2022-09-30T11:07:09.008Z,19.1
2022-09-30T11:10:05.701Z,19.4
2022-09-30T11:13:10.880Z,19.5
2022-09-30T11:16:06.237Z,19.7
2022-09-30T11:19:04.024Z,19.7
2022-09-30T11:21:58.485Z,19.6
2022-09-30T11:25:07.434Z,19.5
2022-09-30T11:28:01.750Z,19.6
2022-09-30T11:31:08.360Z,19.5
2022-09-30T11:34:08.985Z,19.2
2022-09-30T11:37:16.809Z,18.8
2022-09-30T11:40:17.315Z,18.9
2022-09-30T11:43:19.277Z,18.8
2022-09-30T11:46:18.300Z,18.7
2022-09-30T11:49:23.444Z,18.4
2022-09-30T11:52:29.613Z,18.2
2022-09-30T11:55:26.221Z,18.1
2022-09-30T11:58:40.649Z,17.9
2022-09-30T12:01:35.206Z,17.9
2022-09-30T12:04:28.671Z,18.1
2022-09-30T12:07:21.124Z,18.1
2022-09-30T12:10:25.730Z,18.3
2022-09-30T12:13:18.339Z,18.5
2022-09-30T12:16:11.426Z,18.6
2022-09-30T12:19:05.935Z,18.7
2022-09-30T12:22:02.509Z,18.7
2022-09-30T12:24:59.215Z,18.7
2022-09-30T12:27:56.689Z,18.6
2022-09-30T12:33:01.784Z,18.3
2022-09-30T12:36:28.973Z,18.7
2022-09-30T12:39:33.772Z,19.2
2022-09-30T12:42:40.595Z,19.6
2022-09-30T12:46:01.442Z,19.8
2022-09-30T12:48:59.362Z,19.9
2022-09-30T12:51:50.911Z,19.7
2022-09-30T12:54:43.364Z,19.7
2022-09-30T12:57:37.526Z,19.9
2022-09-30T13:00:28.430Z,20.1
2022-09-30T13:03:19.535Z,20.3
2022-09-30T13:06:07.226Z,20.2
2022-09-30T13:08:55.029Z,20.3
2022-09-30T13:12:16.145Z,20.4
2022-09-30T13:15:12.645Z,20.5
2022-09-30T13:18:26.683Z,20.4
2022-09-30T13:21:47.227Z,20.4
2022-09-30T13:24:34.832Z,20.2
2022-09-30T13:27:56.034Z,19.9
2022-09-30T13:31:23.726Z,19.5
2022-09-30T13:34:13.247Z,19.2
2022-09-30T13:37:08.579Z,18.9
2022-09-30T13:40:37.811Z,18.7
2022-09-30T13:43:42.830Z,18.4
2022-09-30T13:46:38.202Z,18.1
2022-09-30T13:49:32.505Z,18
2022-09-30T13:52:27.563Z,17.8
2022-09-30T13:55:20.196Z,17.7
2022-09-30T13:58:12.176Z,17.9
2022-09-30T14:01:20.605Z,18.1
2022-09-30T14:04:20.801Z,18.3
2022-09-30T14:07:27.680Z,18.6
2022-09-30T14:10:28.765Z,18.9
2022-09-30T14:13:32.148Z,19.3
2022-09-30T14:16:34.151Z,19.6
2022-09-30T14:19:59.960Z,19.9
2022-09-30T14:23:00.922Z,19.9
2022-09-30T14:25:48.742Z,20
2022-09-30T14:28:49.240Z,19.8
2022-09-30T14:31:45.854Z,19.6
2022-09-30T14:34:33.805Z,19.6
2022-09-30T14:37:22.231Z,19.5
2022-09-30T14:40:14.875Z,19.4
2022-09-30T14:43:06.268Z,19.3
2022-09-30T14:46:00.366Z,19.2
2022-09-30T14:48:53.742Z,19.2
2022-09-30T14:51:46.610Z,19.1
2022-09-30T14:54:34.876Z,18.9
2022-09-30T14:57:32.784Z,18.7
2022-09-30T15:00:20.494Z,18.5
2022-09-30T15:03:14.630Z,18.4
2022-09-30T15:06:03.189Z,18.2
2022-09-30T15:09:02.196Z,18.1
2022-09-30T15:11:53.489Z,17.9
2022-09-30T15:14:43.010Z,17.7
2022-09-30T15:17:32.338Z,17.6
2022-09-30T15:20:22.597Z,17.5
2022-09-30T15:23:15.152Z,17.5
2022-09-30T15:26:09.545Z,17.4
2022-09-30T15:28:59.224Z,17.3
2022-09-30T15:31:50.289Z,17.3
2022-09-30T15:34:45.648Z,17.2
2022-09-30T15:37:33.903Z,17.1
2022-09-30T15:40:21.785Z,17.1
2022-09-30T15:43:41.472Z,17
2022-09-30T15:46:35.418Z,16.9
2022-09-30T15:49:25.074Z,16.8
2022-09-30T15:52:19.981Z,16.6
2022-09-30T15:55:22.352Z,16.5
2022-09-30T15:58:26.383Z,16.4
2022-09-30T16:01:22.183Z,16.3
2022-09-30T16:04:12.235Z,16.1
2022-09-30T16:07:09.488Z,16
2022-09-30T16:10:04.084Z,15.9
2022-09-30T16:13:03.848Z,15.8
2022-09-30T16:15:52.464Z,15.7
2022-09-30T16:18:42.932Z,15.5
2022-09-30T16:21:31.220Z,15.4
2022-09-30T16:24:29.827Z,15.3
2022-09-30T16:27:34.208Z,15.2
2022-09-30T16:30:23.404Z,15.1
2022-09-30T16:33:11.703Z,15.1
2022-09-30T16:36:00.823Z,16.2
2022-09-30T16:38:48.604Z,18.1
2022-09-30T16:41:36.283Z,17.8
2022-09-30T16:44:23.906Z,17.1
2022-09-30T16:47:11.541Z,16.5
2022-09-30T16:50:01.653Z,16
2022-09-30T16:53:02.363Z,15.7
2022-09-30T16:55:50.142Z,17.7
2022-09-30T16:58:38.074Z,17.9
2022-09-30T17:01:27.344Z,17.2
2022-09-30T17:04:16.620Z,16.5
2022-09-30T17:07:05.594Z,16
2022-09-30T17:09:59.150Z,15.5
2022-09-30T17:12:46.779Z,15.6
2022-09-30T17:15:35.038Z,17.9
2022-09-30T17:18:22.710Z,18
2022-09-30T17:21:10.673Z,17.3
2022-09-30T17:23:58.382Z,16.5
2022-09-30T17:26:47.946Z,15.9
2022-09-30T17:29:41.814Z,15.6
2022-09-30T17:32:31.120Z,17.7
2022-09-30T17:35:19.036Z,18.1
2022-09-30T17:38:07.224Z,17.3
2022-09-30T17:40:57.224Z,16.5
2022-09-30T17:44:17.600Z,15.8
2022-09-30T17:47:05.887Z,15.3
2022-09-30T17:49:53.538Z,16.9
2022-09-30T17:52:41.435Z,18
2022-09-30T17:55:29.178Z,17.2
2022-09-30T17:58:18.650Z,16.4
2022-09-30T18:01:06.833Z,15.8
2022-09-30T18:03:55.857Z,15.2
2022-09-30T18:06:44.992Z,16.3
2022-09-30T18:09:34.039Z,17.8
2022-09-30T18:12:24.053Z,17.2
2022-09-30T18:15:12.461Z,16.4
2022-09-30T18:18:01.193Z,15.7
2022-09-30T18:20:50.071Z,15.2
2022-09-30T18:23:38.490Z,16.7
2022-09-30T18:26:30.542Z,17.2
2022-09-30T18:29:22.638Z,16.5
2022-09-30T18:32:13.694Z,15.7
2022-09-30T18:35:03.751Z,15.1
2022-09-30T18:37:56.959Z,16.6
2022-09-30T18:40:45.127Z,17.7
2022-09-30T18:43:34.793Z,17
2022-09-30T18:46:24.282Z,16.2
2022-09-30T18:49:13.534Z,15.4
2022-09-30T18:52:02.701Z,15.2
2022-09-30T18:54:50.693Z,16.9
2022-09-30T18:57:39.220Z,17
2022-09-30T19:00:27.920Z,16.2
2022-09-30T19:03:16.976Z,15.4
2022-09-30T19:06:09.200Z,14.8
2022-09-30T19:08:57.272Z,14.7
2022-09-30T19:11:46.231Z,16.6
2022-09-30T19:14:37.601Z,17
2022-09-30T19:17:30.132Z,16.2
2022-09-30T19:20:18.522Z,15.5
2022-09-30T19:23:08.365Z,15.4
2022-09-30T19:25:56.780Z,17
2022-09-30T19:28:48.777Z,16.8
2022-09-30T19:31:38.997Z,16
2022-09-30T19:34:32.210Z,15.3
2022-09-30T19:37:27.282Z,14.8
2022-09-30T19:40:21.349Z,16.5
2022-09-30T19:43:10.881Z,16.8
2022-09-30T19:46:04.244Z,16
2022-09-30T19:48:57.577Z,15.3
2022-09-30T19:51:46.275Z,14.7
2022-09-30T19:54:40.774Z,15.7
2022-09-30T19:57:31.724Z,17.4
2022-09-30T20:00:21.690Z,16.9
2022-09-30T20:03:11.783Z,16
2022-09-30T20:06:01.912Z,15.3
2022-09-30T20:08:53.811Z,15.9
2022-09-30T20:11:44.861Z,17.2
2022-09-30T20:14:32.488Z,16.5
2022-09-30T20:17:52.114Z,15.6
2022-09-30T20:20:40.332Z,14.9
2022-09-30T20:23:30.318Z,14.8
2022-09-30T20:26:23.518Z,16.7
2022-09-30T20:29:12.314Z,16.8
2022-09-30T20:32:05.132Z,16
2022-09-30T20:34:52.913Z,15.2
2022-09-30T20:37:41.402Z,14.6
2022-09-30T20:40:29.129Z,15
2022-09-30T20:43:19.076Z,16.9
2022-09-30T20:46:06.849Z,16.8
2022-09-30T20:48:57.297Z,15.9
2022-09-30T20:51:45.905Z,15.1
2022-09-30T20:54:34.411Z,14.5
2022-09-30T20:57:22.993Z,15.3
2022-09-30T21:00:10.801Z,16.8
2022-09-30T21:03:00.982Z,16.1
2022-09-30T21:05:49.284Z,15.3
2022-09-30T21:08:38.191Z,14.6
2022-09-30T21:11:27.727Z,14.2
2022-09-30T21:14:15.445Z,15.6
2022-09-30T21:17:04.080Z,16.2
2022-09-30T21:19:52.911Z,15.5
2022-09-30T21:22:40.349Z,14.8
2022-09-30T21:25:28.053Z,14.2
2022-09-30T21:28:15.906Z,14.2
2022-09-30T21:31:04.750Z,16
2022-09-30T21:34:05.199Z,16.2
2022-09-30T21:36:57.146Z,15.3
2022-09-30T21:39:44.930Z,14.6
2022-09-30T21:42:33.054Z,14
2022-09-30T21:45:21.111Z,15
2022-09-30T21:48:09.839Z,16.4
2022-09-30T21:50:57.969Z,15.7
2022-09-30T21:53:45.739Z,15
2022-09-30T21:56:33.486Z,14.3
2022-09-30T21:59:21.697Z,14.4
2022-09-30T22:02:10.131Z,16.2
2022-09-30T22:04:57.990Z,16.4
2022-09-30T22:07:45.630Z,15.5
2022-09-30T22:10:33.322Z,14.8
2022-09-30T22:13:21.154Z,14.1
2022-09-30T22:16:09.903Z,15.3
2022-09-30T22:18:59.827Z,16.5
2022-09-30T22:21:49.822Z,15.7
2022-09-30T22:24:37.521Z,14.9
2022-09-30T22:27:25.693Z,14.2
2022-09-30T22:30:13.341Z,15
2022-09-30T22:33:01.457Z,16.6
2022-09-30T22:36:21.192Z,15.8
2022-09-30T22:39:40.919Z,14.8
2022-09-30T22:42:28.559Z,14.1
2022-09-30T22:45:16.561Z,15.1
2022-09-30T22:48:04.863Z,16.4
2022-09-30T22:50:52.445Z,15.6
2022-09-30T22:53:40.121Z,14.7
2022-09-30T22:56:27.985Z,14
2022-09-30T22:59:16.695Z,15.1
2022-09-30T23:02:06.252Z,16.6
2022-09-30T23:04:54.051Z,15.9
2022-09-30T23:07:41.703Z,14.9
2022-09-30T23:10:29.375Z,14.2
2022-09-30T23:13:17.207Z,14.9
2022-09-30T23:16:05.423Z,16.6
2022-09-30T23:18:54.613Z,16.1
2022-09-30T23:21:42.930Z,15.1
2022-09-30T23:24:30.703Z,14.2
2022-09-30T23:27:18.424Z,13.8
2022-09-30T23:30:06.187Z,15.3
2022-09-30T23:32:54.405Z,16.2
2022-09-30T23:35:42.138Z,15.4
2022-09-30T23:38:30.849Z,14.5
2022-09-30T23:41:18.974Z,14
2022-09-30T23:44:06.972Z,15.7
2022-09-30T23:46:54.737Z,15.9
2022-09-30T23:50:13.881Z,14.8
2022-09-30T23:53:01.740Z,14
2022-09-30T23:55:49.442Z,14.6
2022-09-30T23:58:41.082Z,16.3
